Time;durP1;ratioP1;P1;durP2;ratioP2;P2;SDS_P1;SDS_P2;PMS_P1;PMS_P2;Temp;Humidity;BMP_temperature;BMP_pressure;BME280_temperature;BME280_humidity;BME280_pressure;Samples;Min_cycle;Max_cycle;Signal;HPM_P1;HPM_P2
2022/08/09 00:03:19;;;;;;;2.55;1.25;;;;;;;20.73;39.31;100424.91;12210593;19;20046;-79
2022/08/09 00:07:42;;;;;;;2.17;1.50;;;;;;;20.67;39.33;100420.53;12189695;19;20014;-78
2022/08/09 00:11:45;;;;;;;4.57;1.25;;;;;;;20.65;39.91;100417.22;12209757;19;20046;-77
2022/08/09 00:16:05;;;;;;;3.58;1.60;;;;;;;20.55;40.18;100420.97;12208101;19;20015;-78
2022/08/09 00:20:07;;;;;;;4.63;1.30;;;;;;;20.58;40.34;100416.75;12189688;19;20385;-78
2022/08/09 00:24:12;;;;;;;2.35;1.52;;;;;;;20.53;40.20;100403.66;12207760;19;20007;-79
2022/08/09 00:28:15;;;;;;;;;;;;;;;20.58;40.21;100402.75;12213438;19;20022;-79
2022/08/09 00:32:18;;;;;;;2.92;1.35;;;;;;;20.52;40.03;100401.13;12184584;19;20345;-78
2022/08/09 00:36:28;;;;;;;4.38;1.80;;;;;;;20.47;40.47;100396.44;12207019;19;20014;-78
2022/08/09 00:40:31;;;;;;;3.47;1.15;;;;;;;20.42;40.49;100391.72;12206868;19;20017;-77
2022/08/09 00:44:39;;;;;;;3.55;1.38;;;;;;;20.40;40.46;100393.16;12186928;19;20010;-78
2022/08/09 00:48:41;;;;;;;9.35;1.58;;;;;;;20.33;40.54;100395.50;12206538;19;20369;-78
2022/08/09 00:52:51;;;;;;;3.72;1.55;;;;;;;20.25;40.79;100386.63;12186972;19;20017;-78
2022/08/09 00:56:54;;;;;;;2.90;1.50;;;;;;;20.19;41.14;100389.81;12204611;19;20476;-78
2022/08/09 01:00:57;;;;;;;1.75;1.30;;;;;;;20.10;41.23;100389.66;12202411;19;20044;-78
2022/08/09 01:05:15;;;;;;;4.15;1.38;;;;;;;20.02;41.37;100381.94;12184673;19;20046;-79
2022/08/09 01:09:25;;;;;;;;;;;;;;;19.93;41.71;100383.69;12205149;19;20014;-79
2022/08/09 01:13:55;;;;;;;3.97;1.52;;;;;;;19.83;41.86;100379.06;12206909;19;19919;-79
2022/08/09 01:18:11;;;;;;;2.25;1.38;;;;;;;19.73;42.27;100376.41;12209416;19;20058;-81
2022/08/09 01:22:27;;;;;;;4.65;1.42;;;;;;;19.68;41.79;100382.88;12252265;19;20147;-81
2022/08/09 01:26:47;;;;;;;7.05;1.58;;;;;;;19.67;42.17;100386.00;12193464;19;20069;-80
2022/08/09 01:30:57;;;;;;;3.38;1.50;;;;;;;19.63;42.12;100384.88;12211092;19;20018;-80
2022/08/09 01:35:05;;;;;;;4.03;1.48;;;;;;;19.58;42.28;100378.22;12188442;19;20110;-80
2022/08/09 01:39:29;;;;;;;3.95;1.40;;;;;;;19.56;42.69;100388.00;12209997;19;20018;-79
2022/08/09 01:43:38;;;;;;;4.75;1.58;;;;;;;19.54;42.15;100379.94;12207413;19;20010;-79
2022/08/09 01:47:54;;;;;;;3.35;1.63;;;;;;;19.55;42.85;100380.78;12186572;19;20023;-79
2022/08/09 01:51:58;;;;;;;3.47;1.65;;;;;;;19.55;42.45;100381.59;12207223;19;20011;-79
2022/08/09 01:56:10;;;;;;;3.50;1.90;;;;;;;19.57;43.10;100382.16;12183966;19;20368;-79
2022/08/09 02:00:13;;;;;;;2.60;1.67;;;;;;;19.56;42.94;100377.66;12203984;19;20034;-79
2022/08/09 02:04:37;;;;;;;;;;;;;;;19.54;43.70;100381.88;12203020;19;20023;-78
2022/08/09 02:08:46;;;;;;;3.65;1.73;;;;;;;19.52;43.85;100384.97;12184019;19;19970;-79
2022/08/09 02:13:03;;;;;;;4.80;1.80;;;;;;;19.48;43.99;100389.50;12212592;19;20013;-79
2022/08/09 02:17:07;;;;;;;5.55;2.08;;;;;;;19.46;44.15;100388.97;12194304;19;20079;-77
2022/08/09 02:21:35;;;;;;;4.68;2.10;;;;;;;19.41;44.42;100391.81;12218568;19;20587;-79
2022/08/09 02:25:43;;;;;;;5.25;1.83;;;;;;;19.37;44.36;100393.53;12192975;19;20030;-79
2022/08/09 02:29:57;;;;;;;5.65;2.15;;;;;;;19.37;44.40;100404.72;12212221;19;20452;-79
2022/08/09 02:34:10;;;;;;;4.22;2.00;;;;;;;19.32;44.83;100393.56;12210889;19;20018;-80
2022/08/09 02:38:36;;;;;;;6.18;2.53;;;;;;;19.29;44.37;100403.38;12191851;19;20010;-79
2022/08/09 02:42:42;;;;;;;6.72;2.10;;;;;;;19.26;44.48;100395.56;12214744;19;20590;-80
2022/08/09 02:46:45;;;;;;;5.28;1.88;;;;;;;19.27;44.35;100402.00;12192641;19;20532;-79
2022/08/09 02:50:55;;;;;;;3.22;1.90;;;;;;;19.20;44.97;100404.31;12211411;19;20010;-79
2022/08/09 02:55:00;;;;;;;9.20;2.08;;;;;;;19.18;45.15;100398.16;12215563;19;20082;-80
2022/08/09 02:59:18;;;;;;;3.67;1.80;;;;;;;19.10;45.70;100394.88;12190293;19;20031;-79
2022/08/09 03:03:38;;;;;;;4.10;2.03;;;;;;;19.09;45.47;100397.97;12213711;19;20014;-78
2022/08/09 03:08:02;;;;;;;4.45;2.20;;;;;;;19.04;45.79;100392.44;12189425;19;22426;-78
2022/08/09 03:12:05;;;;;;;5.70;2.45;;;;;;;19.00;45.18;100397.75;12218528;19;20523;-78
2022/08/09 03:16:18;;;;;;;4.63;2.15;;;;;;;18.94;45.80;100395.28;12215317;19;20010;-79
2022/08/09 03:20:20;;;;;;;3.28;2.17;;;;;;;18.88;45.72;100398.13;12192651;19;20038;-79
2022/08/09 03:24:24;;;;;;;3.80;2.13;;;;;;;18.77;46.75;100398.47;12210964;19;20034;-79
2022/08/09 03:28:46;;;;;;;4.47;2.20;;;;;;;18.74;46.55;100396.28;12191875;19;20041;-79
2022/08/09 03:32:57;;;;;;;3.83;2.13;;;;;;;18.68;46.53;100398.25;12210023;19;20486;-79
2022/08/09 03:36:59;;;;;;;3.13;2.38;;;;;;;18.62;46.69;100404.97;12209831;19;20018;-79
2022/08/09 03:41:21;;;;;;;4.57;2.20;;;;;;;18.53;47.07;100406.72;12189938;19;20010;-79
2022/08/09 03:45:30;;;;;;;4.88;2.22;;;;;;;18.43;47.75;100418.78;12209060;19;20531;-78
2022/08/09 03:49:53;;;;;;;8.65;2.05;;;;;;;18.38;48.02;100421.59;12190189;19;20034;-78
2022/08/09 03:53:59;;;;;;;5.53;2.10;;;;;;;18.35;47.85;100425.81;12210473;19;20007;-79
2022/08/09 03:58:03;;;;;;;3.45;2.10;;;;;;;18.29;48.04;100434.47;12208667;19;20013;-79
2022/08/09 04:02:18;;;;;;;3.75;2.28;;;;;;;18.21;48.60;100433.94;12187429;19;20034;-79
2022/08/09 04:06:27;;;;;;;4.57;2.20;;;;;;;18.15;48.60;100431.47;12211871;19;20007;-79
2022/08/09 04:10:30;;;;;;;6.60;2.45;;;;;;;18.10;48.89;100443.47;12210515;19;20018;-79
2022/08/09 04:14:31;;;;;;;3.97;2.50;;;;;;;18.07;48.66;100438.47;12186475;19;20090;-79
2022/08/09 04:18:53;;;;;;;5.40;2.40;;;;;;;18.02;49.17;100438.47;12209241;19;20039;-79
2022/08/09 04:22:55;;;;;;;5.63;2.28;;;;;;;18.02;49.11;100446.84;12188412;19;20453;-78
2022/08/09 04:26:59;;;;;;;5.55;2.15;;;;;;;18.01;49.10;100450.75;12210041;19;20026;-79
2022/08/09 04:31:01;;;;;;;4.38;2.15;;;;;;;18.00;48.97;100451.88;12209019;19;20038;-78
2022/08/09 04:35:11;;;;;;;4.45;2.10;;;;;;;17.96;49.14;100456.34;12189041;19;20070;-78
2022/08/09 04:39:13;;;;;;;5.18;2.10;;;;;;;17.95;48.94;100452.72;12209168;19;20014;-77
2022/08/09 04:43:16;;;;;;;3.58;2.40;;;;;;;17.95;49.37;100457.47;12211470;19;20003;-77
2022/08/09 04:47:19;;;;;;;3.95;2.30;;;;;;;17.91;49.62;100457.22;12186636;19;20643;-78
2022/08/09 04:51:21;;;;;;;4.72;2.30;;;;;;;17.90;49.55;100474.19;12208385;19;20006;-78
2022/08/09 04:55:23;;;;;;;5.13;2.20;;;;;;;17.84;50.00;100481.75;12243248;19;20007;-82
2022/08/09 04:59:25;;;;;;;6.28;2.75;;;;;;;17.81;49.78;100484.25;12208860;19;20780;-80
2022/08/09 05:03:32;;;;;;;3.72;2.15;;;;;;;17.78;50.13;100496.81;12214343;19;20371;-80
2022/08/09 05:07:44;;;;;;;3.80;2.30;;;;;;;17.76;50.63;100493.44;12190650;19;20615;-82
2022/08/09 05:11:47;;;;;;;5.45;2.40;;;;;;;17.75;50.76;100495.38;12210737;19;20006;-81
2022/08/09 05:15:49;;;;;;;6.57;2.53;;;;;;;17.79;50.76;100497.63;12209225;19;20055;-81
2022/08/09 05:19:57;;;;;;;5.95;2.47;;;;;;;17.80;50.91;100483.44;12189878;19;20705;-82
2022/08/09 05:23:59;;;;;;;6.07;2.10;;;;;;;17.82;51.24;100497.94;12205915;19;20017;-81
2022/08/09 05:28:02;;;;;;;6.03;2.75;;;;;;;17.88;51.04;100501.56;12204545;19;20046;-81
2022/08/09 05:32:04;;;;;;;5.18;2.20;;;;;;;17.91;51.16;100504.59;12183867;19;20091;-81
2022/08/09 05:36:07;;;;;;;7.15;2.30;;;;;;;17.99;50.77;100505.97;12204982;19;20034;-81
2022/08/09 05:40:09;;;;;;;5.03;2.45;;;;;;;18.05;50.61;100507.63;12205685;19;20011;-80
2022/08/09 05:44:11;;;;;;;5.68;2.60;;;;;;;18.11;50.73;100505.66;12182941;19;21665;-80
2022/08/09 05:48:14;;;;;;;;;;;;;;;18.19;50.61;100503.13;12217861;19;20014;-78
2022/08/09 05:52:17;;;;;;;5.80;2.08;;;;;;;18.28;50.32;100516.50;12221738;19;19982;-79
2022/08/09 05:56:19;;;;;;;;;;;;;;;18.35;50.34;100509.50;12194666;19;20018;-78
2022/08/09 06:00:29;;;;;;;5.10;2.42;;;;;;;18.47;49.82;100520.31;12215958;19;19938;-78
2022/08/09 06:04:35;;;;;;;3.97;1.98;;;;;;;18.57;49.74;100519.47;12219513;19;20030;-79
2022/08/09 06:08:36;;;;;;;3.63;2.00;;;;;;;18.62;49.57;100531.44;12195669;19;20010;-78
2022/08/09 06:12:41;;;;;;;4.25;2.38;;;;;;;18.74;49.67;100531.13;12215211;19;20011;-79
2022/08/09 06:16:43;;;;;;;4.57;2.13;;;;;;;18.89;49.43;100538.59;12193865;19;20011;-79
2022/08/09 06:20:55;;;;;;;5.93;2.40;;;;;;;19.03;48.79;100533.19;12216129;19;20078;-78
2022/08/09 06:24:58;;;;;;;7.47;2.25;;;;;;;19.17;48.58;100538.97;12214780;19;20006;-78
2022/08/09 06:29:01;;;;;;;4.53;2.20;;;;;;;19.39;48.19;100542.16;12194982;19;20070;-78
2022/08/09 06:33:05;;;;;;;5.60;2.30;;;;;;;19.58;47.84;100542.31;12210207;19;20126;-79
2022/08/09 06:37:27;;;;;;;3.45;2.00;;;;;;;19.79;47.63;100551.38;12183182;19;20567;-79
2022/08/09 06:41:29;;;;;;;5.50;2.00;;;;;;;19.96;47.17;100551.78;12187960;19;20006;-78
2022/08/09 06:45:51;;;;;;;3.63;2.28;;;;;;;20.19;47.07;100550.13;12211681;19;20013;-78
2022/08/09 06:50:09;;;;;;;7.00;2.20;;;;;;;20.42;46.33;100559.69;12193394;19;20014;-79
2022/08/09 06:54:20;;;;;;;4.38;1.63;;;;;;;20.64;45.29;100564.78;12222905;19;20363;-80
2022/08/09 06:58:21;;;;;;;6.13;2.15;;;;;;;20.93;45.17;100563.84;12216800;19;20107;-79
2022/08/09 07:02:44;;;;;;;5.77;2.53;;;;;;;21.20;44.10;100567.97;12194050;19;20019;-79
2022/08/09 07:06:47;;;;;;;4.88;2.13;;;;;;;21.43;44.12;100571.88;12216406;19;20014;-79
2022/08/09 07:10:54;;;;;;;2.88;2.13;;;;;;;21.62;42.84;100575.47;12191741;19;20444;-79
2022/08/09 07:14:55;;;;;;;9.43;2.60;;;;;;;21.98;42.04;100577.66;12216025;19;20077;-80
2022/08/09 07:19:04;;;;;;;6.13;2.40;;;;;;;22.28;41.96;100588.38;12215598;19;20010;-78
2022/08/09 07:23:08;;;;;;;4.50;2.10;;;;;;;22.53;41.14;100577.78;12193068;19;20014;-80
2022/08/09 07:27:20;;;;;;;6.80;2.73;;;;;;;22.92;40.67;100582.03;12218117;19;20464;-77
2022/08/09 07:31:34;;;;;;;6.05;2.30;;;;;;;23.19;40.23;100578.38;12215852;19;20024;-79
2022/08/09 07:35:39;;;;;;;5.45;2.47;;;;;;;23.39;39.63;100582.72;12191905;19;20011;-79
2022/08/09 07:39:54;;;;;;;7.00;2.45;;;;;;;23.62;39.17;100589.22;12216273;19;20014;-78
2022/08/09 07:43:57;;;;;;;6.23;2.23;;;;;;;23.82;39.38;100587.88;12193011;19;20007;-79
2022/08/09 07:48:00;;;;;;;4.90;2.38;;;;;;;24.00;38.49;100586.00;12212581;19;20011;-78
2022/08/09 07:52:05;;;;;;;6.30;2.33;;;;;;;24.20;38.38;100590.28;12211518;19;20010;-80
2022/08/09 07:56:18;;;;;;;3.95;2.45;;;;;;;24.29;37.74;100577.06;12194173;19;20014;-81
2022/08/09 08:00:28;;;;;;;4.50;2.33;;;;;;;24.60;37.81;100587.50;12212638;19;20081;-79
2022/08/09 08:04:38;;;;;;;8.85;3.05;;;;;;;24.87;37.28;100586.47;12215219;19;20087;-80
2022/08/09 08:08:40;;;;;;;3.45;2.13;;;;;;;25.06;37.35;100584.19;12189985;19;20017;-80
2022/08/09 08:13:02;;;;;;;3.95;2.25;;;;;;;25.13;37.00;100594.97;12210205;19;20011;-79
2022/08/09 08:17:04;;;;;;;8.63;2.45;;;;;;;25.35;36.04;100585.59;12191278;19;20006;-80
2022/08/09 08:21:12;;;;;;;3.88;1.77;;;;;;;25.80;35.95;100591.72;12214773;19;20010;-79
2022/08/09 08:25:14;;;;;;;6.20;2.50;;;;;;;25.92;35.54;100583.44;12213987;19;20029;-80
2022/08/09 08:29:18;;;;;;;3.17;2.17;;;;;;;26.19;36.00;100589.88;12191991;19;20010;-80
2022/08/09 08:33:28;;;;;;;3.95;2.10;;;;;;;26.52;35.23;100590.13;12252875;19;20017;-81
2022/08/09 08:37:50;;;;;;;5.88;2.05;;;;;;;26.71;34.75;100584.06;12206737;19;20022;-82
2022/08/09 08:42:05;;;;;;;12.48;2.40;;;;;;;26.88;34.46;100585.13;12220538;19;20010;-81
2022/08/09 08:46:11;;;;;;;5.50;2.20;;;;;;;27.13;33.75;100586.97;12219690;19;20010;-80
2022/08/09 08:50:33;;;;;;;3.20;2.50;;;;;;;27.43;33.29;100582.13;12194950;19;20101;-81
2022/08/09 08:54:35;;;;;;;5.75;2.28;;;;;;;27.60;32.79;100589.63;12210800;19;20006;-80
2022/08/09 08:58:37;;;;;;;33.72;5.25;;;;;;;27.78;33.20;100584.69;12208363;19;20023;-81
2022/08/09 09:02:50;;;;;;;5.05;2.25;;;;;;;28.02;32.89;100586.81;12176313;19;20026;-81
2022/08/09 09:06:59;;;;;;;4.68;2.28;;;;;;;28.24;32.31;100596.06;12213231;19;20010;-79
2022/08/09 09:11:04;;;;;;;2.55;1.90;;;;;;;28.56;31.84;100586.72;12184378;19;20041;-79
2022/08/09 09:15:06;;;;;;;4.90;2.33;;;;;;;28.60;32.22;100581.97;12203976;19;20021;-79
2022/08/09 09:19:09;;;;;;;4.78;1.98;;;;;;;28.89;31.92;100588.63;12207845;19;20049;-80
2022/08/09 09:23:43;;;;;;;4.95;2.22;;;;;;;29.15;30.89;100578.91;12184329;19;20035;-81
2022/08/09 09:27:58;;;;;;;2.63;1.90;;;;;;;29.14;30.29;100580.09;12212681;19;20007;-80
2022/08/09 09:32:08;;;;;;;3.10;1.85;;;;;;;29.28;30.27;100581.38;12190440;19;20006;-82
2022/08/09 09:36:17;;;;;;;4.15;2.10;;;;;;;29.58;29.89;100581.06;12211052;19;20027;-82
2022/08/09 09:40:39;;;;;;;6.00;2.10;;;;;;;29.75;29.52;100579.97;12214545;19;20038;-80
2022/08/09 09:45:05;;;;;;;4.15;2.00;;;;;;;30.03;28.94;100579.13;12179719;19;20055;-83
2022/08/09 09:49:10;;;;;;;;;;;;;;;30.13;27.84;100579.44;12210402;19;20014;-81
2022/08/09 09:53:31;;;;;;;5.40;1.90;;;;;;;30.07;27.71;100568.69;12204056;19;19984;-84
2022/08/09 09:57:58;;;;;;;3.58;2.03;;;;;;;30.37;28.11;100572.81;12204177;19;20035;-81
2022/08/09 10:02:17;;;;;;;4.10;2.05;;;;;;;30.58;27.70;100560.31;12186164;19;20015;-82
2022/08/09 10:06:20;;;;;;;3.45;1.67;;;;;;;30.65;26.47;100563.34;12210045;19;20103;-81
2022/08/09 10:10:28;;;;;;;2.50;1.85;;;;;;;30.87;26.48;100562.69;12207865;19;20036;-84
2022/08/09 10:14:32;;;;;;;5.22;1.85;;;;;;;30.92;26.25;100575.00;12186253;19;20368;-82
2022/08/09 10:18:34;;;;;;;5.57;2.03;;;;;;;31.02;25.99;100563.06;12208635;19;20042;-79
2022/08/09 10:22:37;;;;;;;;;;;;;;;30.98;25.29;100567.84;12206759;19;20011;-84
2022/08/09 10:26:44;;;;;;;8.18;1.90;;;;;;;31.24;25.27;100568.06;12184617;19;20277;-82
2022/08/09 10:30:47;;;;;;;4.90;2.05;;;;;;;31.30;25.70;100565.75;12206543;19;20007;-83
2022/08/09 10:35:10;;;;;;;4.73;2.33;;;;;;;31.37;25.39;100548.84;12198816;19;20004;-81
2022/08/09 10:39:17;;;;;;;4.78;2.00;;;;;;;31.41;24.87;100555.47;12216548;19;20283;-82
2022/08/09 10:43:36;;;;;;;2.97;2.10;;;;;;;31.54;24.57;100547.59;12219028;19;20082;-85
2022/08/09 10:48:15;;;;;;;7.55;2.03;;;;;;;31.58;24.28;100547.66;12197967;19;20035;-81
2022/08/09 10:53:04;;;;;;;3.90;2.03;;;;;;;31.81;24.58;100542.84;12212138;19;20010;-81
2022/08/09 10:57:12;;;;;;;3.70;1.90;;;;;;;31.70;25.21;100544.66;12195789;19;20035;-81
2022/08/09 11:01:34;;;;;;;4.05;1.92;;;;;;;31.97;24.45;100549.28;12209278;19;20021;-81
2022/08/09 11:06:13;;;;;;;3.17;2.30;;;;;;;32.11;24.35;100540.19;12192216;19;20031;-82
2022/08/09 11:10:38;;;;;;;4.93;2.00;;;;;;;32.06;23.73;100540.50;12218534;19;20021;-83
2022/08/09 11:14:53;;;;;;;3.97;1.83;;;;;;;32.33;23.61;100530.00;12194784;19;20007;-82
2022/08/09 11:18:56;;;;;;;1.45;1.35;;;;;;;32.67;23.24;100538.75;12215422;19;20007;-79
2022/08/09 11:22:59;;;;;;;7.68;2.08;;;;;;;32.84;22.51;100531.66;12192004;19;20074;-80
2022/08/09 11:27:33;;;;;;;13.25;2.70;;;;;;;33.01;22.34;100525.44;12213121;19;20025;-80
2022/08/09 11:31:55;;;;;;;2.25;1.52;;;;;;;33.02;22.42;100532.81;12183748;19;20361;-81
2022/08/09 11:36:00;;;;;;;3.13;1.92;;;;;;;33.39;22.31;100534.97;12213458;19;20026;-82
2022/08/09 11:40:05;;;;;;;7.47;2.05;;;;;;;33.26;21.53;100536.44;12209223;19;20014;-82
2022/08/09 11:44:07;;;;;;;3.45;1.70;;;;;;;33.36;21.63;100535.72;12193238;19;20120;-81
2022/08/09 11:48:18;;;;;;;4.18;2.17;;;;;;;33.71;21.62;100537.44;12217326;19;20013;-83
2022/08/09 11:52:27;;;;;;;4.72;1.98;;;;;;;34.30;21.22;100521.34;12214173;19;20035;-80
2022/08/09 11:56:49;;;;;;;6.25;2.35;;;;;;;34.97;20.42;100519.44;12194054;19;20649;-81
2022/08/09 12:01:02;;;;;;;4.15;2.30;;;;;;;35.49;19.67;100523.84;12208477;19;20021;-83
2022/08/09 12:05:09;;;;;;;3.97;1.80;;;;;;;35.58;19.31;100527.19;12188002;19;20382;-81
2022/08/09 12:09:25;;;;;;;3.33;2.03;;;;;;;36.07;18.72;100512.59;12210437;19;20018;-82
2022/08/09 12:13:41;;;;;;;4.75;2.17;;;;;;;36.43;19.10;100516.31;12211732;19;20082;-82
2022/08/09 12:18:02;;;;;;;4.68;2.50;;;;;;;37.05;18.32;100510.16;12199953;19;19999;-81
2022/08/09 12:22:08;;;;;;;3.38;2.10;;;;;;;37.21;18.41;100503.13;12260684;19;20002;-81
2022/08/09 12:26:12;;;;;;;4.18;1.80;;;;;;;37.55;18.06;100491.94;12197812;19;20026;-83
2022/08/09 12:30:31;;;;;;;5.15;2.22;;;;;;;38.13;17.49;100496.09;12215413;19;20584;-83
2022/08/09 12:34:41;;;;;;;6.65;2.17;;;;;;;38.38;17.24;100490.19;12215676;19;20748;-82
2022/08/09 12:38:43;;;;;;;4.38;1.85;;;;;;;38.94;16.62;100496.69;12193889;19;20078;-83
2022/08/09 12:42:49;;;;;;;2.10;1.60;;;;;;;39.03;16.08;100486.69;12211622;19;20025;-83
2022/08/09 12:46:51;;;;;;;3.40;1.88;;;;;;;39.06;15.48;100491.59;12191175;19;20341;-83
2022/08/09 12:50:53;;;;;;;4.25;2.00;;;;;;;39.41;15.52;100485.44;12213416;19;20337;-82
2022/08/09 12:54:55;;;;;;;6.07;1.90;;;;;;;39.75;15.34;100490.38;12208704;19;20031;-81
2022/08/09 12:59:23;;;;;;;7.03;2.03;;;;;;;40.39;14.91;100479.09;12194747;19;20024;-84
2022/08/09 13:03:40;;;;;;;5.63;2.10;;;;;;;40.64;14.65;100479.50;12213008;19;20467;-84
2022/08/09 13:08:14;;;;;;;5.05;2.17;;;;;;;40.29;14.96;100481.72;12193257;19;20030;-82
2022/08/09 13:12:21;;;;;;;4.85;1.77;;;;;;;40.49;14.62;100464.47;12212270;19;20508;-83
2022/08/09 13:16:44;;;;;;;4.70;1.88;;;;;;;41.02;14.33;100473.38;12211041;19;20014;-84
2022/08/09 13:20:46;;;;;;;3.83;2.08;;;;;;;41.08;14.09;100457.22;12186700;19;20031;-84
2022/08/09 13:25:08;;;;;;;4.32;2.10;;;;;;;41.74;13.71;100451.69;12211513;19;20077;-82
2022/08/09 13:29:20;;;;;;;3.05;2.00;;;;;;;42.15;13.66;100439.50;12184164;19;20098;-84
2022/08/09 13:33:42;;;;;;;6.15;2.13;;;;;;;41.87;13.69;100443.91;12209687;19;20039;-83
2022/08/09 13:37:54;;;;;;;2.78;1.90;;;;;;;42.68;13.42;100446.00;12191230;19;20007;-83
2022/08/09 13:42:04;;;;;;;2.63;1.90;;;;;;;42.55;12.75;100443.03;12207968;19;20460;-84
2022/08/09 13:46:13;;;;;;;4.90;1.70;;;;;;;42.65;12.73;100434.50;12210147;19;20006;-85
2022/08/09 13:50:35;;;;;;;4.30;1.63;;;;;;;43.11;12.47;100446.91;12186437;19;20015;-83
2022/08/09 13:54:37;;;;;;;2.33;1.75;;;;;;;42.94;12.49;100440.34;12204483;19;20007;-83
2022/08/09 13:58:59;;;;;;;2.38;1.80;;;;;;;43.08;12.36;100433.34;12183643;19;20011;-83
2022/08/09 14:03:00;;;;;;;3.78;1.77;;;;;;;42.73;12.17;100424.38;12208499;19;20006;-85
2022/08/09 14:07:22;;;;;;;3.50;2.28;;;;;;;42.91;12.59;100423.88;12214292;19;20070;-88
2022/08/09 14:11:30;;;;;;;2.78;1.90;;;;;;;43.12;12.43;100434.84;12196340;19;20011;-84
2022/08/09 14:15:47;;;;;;;2.63;1.70;;;;;;;43.60;12.20;100415.59;12219134;19;20010;-83
2022/08/09 14:20:09;;;;;;;2.67;1.77;;;;;;;43.56;11.63;100417.81;12197634;19;20024;-84
2022/08/09 14:24:16;;;;;;;6.13;1.60;;;;;;;42.23;12.75;100414.09;12217649;19;20068;-84
2022/08/09 14:28:32;;;;;;;3.08;1.77;;;;;;;41.69;12.96;100409.63;12220078;19;20032;-84
2022/08/09 14:32:34;;;;;;;7.18;1.80;;;;;;;40.36;13.42;100410.66;12195630;19;20086;-84
2022/08/09 14:36:38;;;;;;;3.53;2.25;;;;;;;38.66;14.33;100413.41;12215961;19;20022;-85
2022/08/09 14:40:44;;;;;;;4.63;2.15;;;;;;;37.13;15.71;100404.66;12217054;19;20020;-83
2022/08/09 14:45:08;;;;;;;3.25;2.08;;;;;;;36.19;16.61;100408.91;12198976;19;20015;-84
2022/08/09 14:49:30;;;;;;;4.05;2.38;;;;;;;35.57;17.28;100401.47;12221064;19;20031;-83
2022/08/09 14:53:40;;;;;;;3.65;2.10;;;;;;;35.47;17.52;100399.38;12198016;19;20011;-83
2022/08/09 14:57:49;;;;;;;3.47;2.50;;;;;;;35.46;17.39;100403.44;12217039;19;20057;-84
2022/08/09 15:01:50;;;;;;;5.78;2.15;;;;;;;35.14;17.69;100393.53;12196446;19;19998;-84
2022/08/09 15:05:52;;;;;;;2.85;2.08;;;;;;;34.45;18.03;100396.41;12217562;19;20010;-83
2022/08/09 15:10:03;;;;;;;4.30;2.10;;;;;;;34.02;18.49;100402.56;12216821;19;20015;-83
2022/08/09 15:14:14;;;;;;;2.38;2.17;;;;;;;33.83;18.58;100384.84;12195146;19;20535;-83
2022/08/09 15:18:22;;;;;;;3.70;1.92;;;;;;;33.77;18.94;100390.09;12214639;19;20519;-83
2022/08/09 15:22:25;;;;;;;3.15;2.00;;;;;;;33.63;19.09;100393.63;12219747;19;20013;-84
2022/08/09 15:26:28;;;;;;;4.57;1.73;;;;;;;33.61;19.18;100381.75;12196103;19;19998;-83
2022/08/09 15:30:32;;;;;;;5.07;2.88;;;;;;;33.67;19.55;100373.66;12214826;19;20015;-83
2022/08/09 15:34:54;;;;;;;5.00;2.17;;;;;;;33.94;19.10;100378.00;12194761;19;20006;-82
2022/08/09 15:38:57;;;;;;;3.92;1.80;;;;;;;33.46;19.53;100369.34;12216655;19;20086;-82
2022/08/09 15:43:00;;;;;;;4.25;1.55;;;;;;;33.23;19.62;100371.56;12213521;19;20006;-81
2022/08/09 15:47:02;;;;;;;4.15;1.85;;;;;;;33.12;19.25;100377.13;12189943;19;20027;-83
2022/08/09 15:51:05;;;;;;;3.53;1.95;;;;;;;32.58;19.73;100373.56;12212164;19;20018;-82
2022/08/09 15:55:27;;;;;;;3.22;1.65;;;;;;;32.31;20.01;100363.34;12213804;19;20039;-84
2022/08/09 15:59:35;;;;;;;5.30;2.10;;;;;;;32.55;19.89;100365.78;12193320;19;20019;-83
2022/08/09 16:03:37;;;;;;;2.72;1.65;;;;;;;32.56;20.19;100361.69;12216588;19;20025;-83
2022/08/09 16:07:42;;;;;;;6.43;1.90;;;;;;;32.94;19.92;100368.31;12217913;19;20011;-83
2022/08/09 16:11:50;;;;;;;8.07;1.92;;;;;;;32.95;19.93;100360.56;12211653;19;19998;-82
2022/08/09 16:15:59;;;;;;;4.82;1.50;;;;;;;32.61;20.62;100358.50;12250450;19;20452;-83
2022/08/09 16:20:17;;;;;;;4.68;2.00;;;;;;;32.11;20.67;100369.16;12202245;19;20011;-83
2022/08/09 16:24:27;;;;;;;2.97;1.80;;;;;;;31.71;21.09;100364.78;12226356;19;20014;-83
2022/08/09 16:28:34;;;;;;;5.15;1.90;;;;;;;31.46;21.56;100369.19;12221528;19;20082;-82
2022/08/09 16:36:58;;;;;;;3.08;1.65;;;;;;;31.42;21.43;100359.78;12213992;19;20078;-84
2022/08/09 16:41:00;;;;;;;5.00;1.92;;;;;;;31.46;21.34;100354.97;12194634;19;20019;-83
2022/08/09 16:45:09;;;;;;;3.92;1.80;;;;;;;31.40;21.79;100363.00;12217773;19;20582;-86
2022/08/09 16:49:11;;;;;;;2.75;1.77;;;;;;;31.47;21.59;100362.28;12219873;19;20011;-84
2022/08/09 16:53:33;;;;;;;4.22;1.70;;;;;;;31.57;21.38;100350.28;12194401;19;20006;-85
2022/08/09 16:57:35;;;;;;;;;;;;;;;31.46;21.49;100361.47;12211880;19;20007;-85
2022/08/09 17:01:58;;;;;;;2.65;1.80;;;;;;;31.36;21.42;100372.69;12190762;19;19938;-85
2022/08/09 17:06:02;;;;;;;4.10;1.77;;;;;;;31.20;21.69;100367.84;12212141;19;20010;-85
2022/08/09 17:10:24;;;;;;;4.30;2.10;;;;;;;30.98;22.08;100374.31;12206811;19;20007;-84
2022/08/09 17:14:26;;;;;;;8.43;1.77;;;;;;;30.64;22.58;100371.97;12183560;19;21433;-84
2022/08/09 17:18:33;;;;;;;3.38;1.92;;;;;;;30.43;22.45;100372.31;12205030;19;20057;-83
2022/08/09 17:22:37;;;;;;;2.88;1.95;;;;;;;30.41;22.34;100369.00;12204473;19;20382;-83
2022/08/09 17:26:50;;;;;;;3.58;1.90;;;;;;;30.44;22.73;100373.13;12192824;19;20007;-84
2022/08/09 17:30:54;;;;;;;5.25;1.85;;;;;;;30.45;22.61;100371.09;12208130;19;20028;-83
2022/08/09 17:34:56;;;;;;;2.03;1.50;;;;;;;30.42;22.57;100370.63;12189514;19;20027;-83
2022/08/09 17:39:13;;;;;;;7.45;2.13;;;;;;;30.41;23.01;100376.72;12211327;19;20007;-84
2022/08/09 17:43:15;;;;;;;3.85;1.85;;;;;;;30.48;22.70;100373.19;12215284;19;20014;-85
2022/08/09 17:47:39;;;;;;;3.92;1.90;;;;;;;30.53;23.15;100372.91;12205350;19;20015;-84
2022/08/09 17:51:51;;;;;;;4.15;1.83;;;;;;;30.47;23.07;100371.56;12210269;19;19998;-85
2022/08/09 17:55:52;;;;;;;3.92;1.85;;;;;;;30.46;22.94;100376.44;12189679;19;20007;-84
2022/08/09 18:00:04;;;;;;;2.58;1.83;;;;;;;30.51;23.22;100380.97;12209049;19;20014;-85
2022/08/09 18:04:12;;;;;;;2.97;1.88;;;;;;;30.65;23.33;100379.28;12212626;19;20349;-86
2022/08/09 18:08:14;;;;;;;4.30;1.98;;;;;;;30.74;23.27;100392.47;12193267;19;20022;-86
2022/08/09 18:12:16;;;;;;;2.83;1.60;;;;;;;30.52;23.39;100392.00;12212291;19;19999;-84
2022/08/09 18:16:21;;;;;;;4.60;1.80;;;;;;;30.30;23.21;100381.31;12203031;19;20465;-84
2022/08/09 18:20:30;;;;;;;3.40;1.85;;;;;;;30.06;23.64;100396.53;12190222;19;20021;-82
2022/08/09 18:24:52;;;;;;;4.43;2.00;;;;;;;29.83;23.89;100397.16;12209120;19;20006;-83
2022/08/09 19:00:09;;;;;;;5.63;2.42;;;;;;;27.83;26.20;100413.72;12233154;19;20065;-82
2022/08/09 20:47:31;;;;;;;5.95;2.70;;;;;;;24.36;32.53;100492.09;12158178;19;20013;-83
2022/08/09 21:21:50;;;;;;;7.00;2.58;;;;;;;23.86;33.26;100496.03;12153982;19;20538;-80
2022/08/09 21:25:58;;;;;;;4.75;2.50;;;;;;;23.78;33.13;100500.47;12208712;19;20035;-80
2022/08/09 21:30:01;;;;;;;;;;;;;;;23.70;33.60;100504.03;12210644;19;20380;-80
2022/08/09 21:34:03;;;;;;;3.20;2.37;;;;;;;23.60;33.42;100505.13;12210760;19;19917;-80
2022/08/09 21:49:21;;;;;;;4.95;2.83;;;;;;;23.28;33.90;100516.59;12228203;19;20497;-82
2022/08/09 21:53:55;;;;;;;5.22;2.50;;;;;;;23.14;34.71;100509.06;12100998;19;20050;-81
2022/08/09 21:58:13;;;;;;;3.67;2.53;;;;;;;23.03;35.10;100512.44;12228103;19;20014;-81
2022/08/09 22:02:32;;;;;;;4.93;2.35;;;;;;;22.94;34.60;100515.97;12174928;19;20046;-81
2022/08/09 22:06:42;;;;;;;4.28;2.20;;;;;;;22.87;34.97;100520.31;12202884;19;20059;-81
2022/08/09 22:11:02;;;;;;;8.23;2.53;;;;;;;22.82;35.41;100517.66;12181373;19;20630;-81
2022/08/09 22:15:28;;;;;;;6.00;2.88;;;;;;;22.74;35.00;100520.03;12205745;19;20015;-82